首页
METAR-TAF:

METAR-TAF

机场 :

罗马菲乌米奇诺, 意大利

羅馬-菲烏米奇諾機場

纬度: 41-48N, 经度: 012-14E, 海拔: 2米

当前天气观测

该预报发布于23分钟前的01:20 UTC
风速13节,风向西转西南
温度 13°C
湿度 77%
气压 1016 hPa
能见度10公里或以上
少量云层高于2000英尺
散云层高于4000英尺

METAR: LIRF 190120Z 24013KT 9999 FEW020 SCT040 13/09 Q1016 NOSIG

时间: 02:43 (01:43 UTC)

预报

该预报发布于2小时和43分钟前的23:00 UTC
预报有效从19日的 00点(UTC)到 20日的 06点(UTC)
风速13节,风向西南
能見度: 7000
少量云层高于1800英尺
多云层高于4000英尺
成为
从 19日的 18点(UTC)到 19日的 20点(UTC)
风速6节,风向多变

TAF: LIRF 182300Z 1900/2006 22013KT 7000 FEW018 BKN040 BECMG 1918/1920 VRB06KT

超过4000个机场的气象观测和天气预报(METAR&TAF报告)。

可查询的气象台以黄色和红色小点在地图上表示。

将鼠标移到小点上方,可查看气象台名称。

然后点击查看天气观测和预报。

如需切换地图:点击带黑十字的绿色按钮放大地图;点击带横线的绿色按钮缩小地图;或者点击绿色箭头查看邻近地区的地图。


METAR-TAF: